• Join FlightAware (Why Join?)
  • Login
  • US Flag 
07:32AM EST


 

Airport Tracker/Info


-or-


 

Live Flight TrackerFlight Track Log ✈ N589H ✈ 27 Feb 2014 ✈ KBED - KILM

Flight Track Log - Related Links

Times and Time Zones

All times are in EST time to prevent confusion due to time zone crossing. See the N589H flight status page for this flight to view local times or setup timezone preferences in your user account.

Time Position Orientation Groundspeed Altitude Reporting Facility
EST Latitude Longitude Course Direction KTS MPH feet Rate Location/Type
03:03PM 42.4667 -71.3167 216° Southwest 155 178 1,000  Level KA90
03:04PM 42.4500 -71.3333 216° Southwest 163 188 2,300 1,680 Climbing KA90
03:06PM 42.3900 -71.4436 234° Southwest 206 237 5,100 1,680 Climbing Boston Center
03:07PM 42.3606 -71.4978 234° Southwest 178 205 7,100 1,920 Climbing Boston Center
03:08PM 42.3342 -71.5531 237° Southwest 177 204 9,100 1,980 Climbing Boston Center
03:09PM 42.2878 -71.5969 215° Southwest 188 216 11,200 1,920 Climbing Boston Center
03:10PM 42.2422 -71.6397 215° Southwest 199 229 13,100 1,860 Climbing Boston Center
03:11PM 42.1958 -71.6808 213° Southwest 199 229 15,000 1,860 Climbing Boston Center
03:12PM 42.1519 -71.7192 213° Southwest 189 217 16,900 1,980 Climbing Boston Center
03:13PM 42.1089 -71.7611 216° Southwest 183 211 19,100 2,040 Climbing Boston Center
03:14PM 42.0703 -71.7950 213° Southwest 169 194 21,200 1,920 Climbing Boston Center
03:15PM 42.0317 -71.8300 214° Southwest 168 193 23,100 1,740 Climbing Boston Center
03:16PM 41.9939 -71.8631 213° Southwest 164 189 24,800 1,380 Climbing Boston Center
03:17PM 41.9517 -71.9025 215° Southwest 182 209 26,000 540 Climbing Boston Center
03:18PM 41.8975 -71.9483 212° Southwest 228 262 26,000  Level Boston Center
03:19PM 41.8367 -72.0039 214° Southwest 260 299 26,000  Level Boston Center
03:20PM 41.7728 -72.0597 213° Southwest 272 313 26,000  Level Boston Center
03:21PM 41.7086 -72.1158 213° Southwest 276 318 26,000  Level Boston Center
03:22PM 41.6478 -72.1703 214° Southwest 268 308 26,000  Level Boston Center
03:23PM 41.5864 -72.2247 214° Southwest 265 305 26,000  Level Boston Center
03:24PM 41.5178 -72.2814 212° Southwest 264 304 26,000  Level Boston Center
03:25PM 41.4564 -72.3347 213° Southwest 264 304 26,000  Level Boston Center
03:26PM 41.3964 -72.3867 213° Southwest 260 299 26,000  Level Boston Center
03:27PM 41.3364 -72.4400 214° Southwest 260 299 26,000  Level Boston Center
03:28PM 41.2692 -72.4975 213° Southwest 260 299 26,000  Level Boston Center
03:29PM 41.2089 -72.5517 214° Southwest 261 300 26,000  Level Boston Center
03:30PM 41.1486 -72.6039 213° Southwest 260 299 26,000  Level Boston Center
03:31PM 41.0878 -72.6556 213° Southwest 260 299 26,000  Level Boston Center
03:32PM 41.0292 -72.7061 213° Southwest 254 292 26,000  Level Boston Center
03:33PM 40.9700 -72.7558 212° Southwest 252 290 26,000  Level Boston Center
03:34PM 40.9128 -72.8042 213° Southwest 245 282 26,000  Level Boston Center
03:35PM 40.8456 -72.8642 214° Southwest 242 278 26,000  Level Boston Center
03:36PM 40.7886 -72.9125 213° Southwest 243 280 26,000  Level Boston Center
03:37PM 40.7319 -72.9606 213° Southwest 241 277 26,000  Level Boston Center
03:38PM 40.6744 -73.0114 214° Southwest 245 282 26,000  Level Boston Center
03:39PM 40.6169 -73.0589 212° Southwest 245 282 26,000  Level Boston Center
03:40PM 40.5614 -73.1064 213° Southwest 243 280 26,000  Level Boston Center
03:41PM 40.5031 -73.1558 213° Southwest 245 282 26,000  Level Boston Center
03:42PM 40.4442 -73.2053 213° Southwest 249 287 26,000  Level Boston Center
03:43PM 40.3861 -73.2550 213° Southwest 249 287 26,000  Level Boston Center
03:44PM 40.3272 -73.3053 213° Southwest 252 290 26,000  Level Boston Center
03:46PM 40.2667 -73.3547 212° Southwest 254 292 26,000  Level Boston Center
03:47PM 40.1953 -73.4136 212° Southwest 256 295 26,000  Level Boston Center
03:48PM 40.1331 -73.4647 212° Southwest 261 300 26,000  Level Boston Center
03:48PM 40.1014 -73.4922 214° Southwest 272 313 26,000  Level Washington Center
03:49PM 40.0378 -73.5456 213° Southwest 272 313 26,000  Level Washington Center
03:50PM 39.9761 -73.5961 212° Southwest 272 313 26,000  Level Washington Center
03:51PM 39.9122 -73.6467 211° Southwest 272 313 26,000  Level Washington Center
03:52PM 39.8811 -73.6747 215° Southwest 268 308 26,000  Level Boston Center
03:53PM 39.8175 -73.7269 212° Southwest 270 311 26,000  Level Boston Center
03:54PM 39.7528 -73.7797 212° Southwest 273 314 26,000  Level Boston Center
03:55PM 39.6883 -73.8322 212° Southwest 274 315 26,000  Level Boston Center
03:56PM 39.6225 -73.8853 212° Southwest 276 318 26,000  Level Boston Center
03:57PM 39.5439 -73.9500 212° Southwest 278 320 26,000  Level Boston Center
03:58PM 39.4781 -74.0036 212° Southwest 279 321 26,000  Level Boston Center
03:59PM 39.4111 -74.0572 212° Southwest 282 325 26,000  Level Boston Center
04:00PM 39.3275 -74.1292 214° Southwest 277 319 26,000  Level Washington Center
04:01PM 39.2592 -74.1817 211° Southwest 282 325 26,000  Level Washington Center
04:02PM 39.1931 -74.2364 213° Southwest 287 330 26,000  Level Washington Center
04:03PM 39.1228 -74.2914 211° Southwest 287 330 26,000  Level Washington Center
04:04PM 39.0547 -74.3486 213° Southwest 292 336 26,000  Level Washington Center
04:05PM 38.9864 -74.4006 211° Southwest 292 336 26,000  Level Washington Center
04:06PM 38.9183 -74.4578 213° Southwest 297 342 26,000  Level Washington Center
04:07PM 38.8500 -74.5122 212° Southwest 297 342 26,000  Level Washington Center
04:08PM 38.7817 -74.5664 212° Southwest 297 342 26,000  Level Washington Center
04:09PM 38.7111 -74.6206 211° Southwest 297 342 26,000  Level Washington Center
04:10PM 38.6428 -74.6772 213° Southwest 297 342 26,000  Level Washington Center
04:11PM 38.5725 -74.7314 211° Southwest 297 342 26,000  Level Washington Center
04:12PM 38.5039 -74.7853 212° Southwest 297 342 26,000  Level Washington Center
04:13PM 38.4356 -74.8389 212° Southwest 297 342 26,000  Level Washington Center
04:14PM 38.3669 -74.8925 211° Southwest 297 342 26,000  Level Washington Center
04:15PM 38.2922 -74.9517 212° Southwest 297 342 26,000  Level Washington Center
04:16PM 38.2236 -74.9997 209° Southwest 297 342 26,000  Level Washington Center
04:17PM 38.1572 -75.0611 216° Southwest 297 342 26,000  Level Washington Center
04:18PM 38.0886 -75.1117 210° Southwest 297 342 26,000  Level Washington Center
04:19PM 38.0181 -75.1622 209° Southwest 297 342 26,000  Level Washington Center
04:20PM 37.9494 -75.2178 213° Southwest 297 342 26,000  Level Washington Center
04:21PM 37.8808 -75.2733 213° Southwest 297 342 26,000  Level Washington Center
04:22PM 37.8100 -75.3236 209° Southwest 297 342 26,000  Level Washington Center
04:23PM 37.7411 -75.3792 213° Southwest 297 342 26,000  Level Washington Center
04:24PM 37.6683 -75.4317 210° Southwest 297 342 26,000  Level Washington Center
04:25PM 37.5994 -75.4869 212° Southwest 297 342 26,000  Level Washington Center
04:26PM 37.5267 -75.5394 210° Southwest 297 342 26,000  Level Washington Center
04:27PM 37.4578 -75.5944 212° Southwest 297 342 26,000  Level Washington Center
04:28PM 37.3869 -75.6494 212° Southwest 297 342 26,000  Level Washington Center
04:29PM 37.3139 -75.7042 211° Southwest 297 342 26,000  Level Washington Center
04:30PM 37.2450 -75.7564 211° Southwest 297 342 26,000  Level Washington Center
04:31PM 37.1719 -75.8108 211° Southwest 302 348 26,000  Level Washington Center
04:32PM 37.1008 -75.8653 211° Southwest 302 348 26,000  Level Washington Center
04:33PM 37.0297 -75.9197 211° Southwest 302 348 26,000  Level Washington Center
04:34PM 36.9525 -75.9739 209° Southwest 302 348 26,000  Level Washington Center
04:35PM 36.8814 -76.0256 210° Southwest 307 353 26,000  Level Washington Center
04:36PM 36.8081 -76.0822 212° Southwest 307 353 26,000  Level Washington Center
04:37PM 36.7369 -76.1336 210° Southwest 307 353 26,000  Level Washington Center
04:38PM 36.6719 -76.1850 212° Southwest 307 353 26,000  Level Washington Center
04:39PM 36.5986 -76.2414 212° Southwest 307 353 26,000  Level Washington Center
04:40PM 36.5253 -76.2925 209° Southwest 307 353 26,000  Level Washington Center
04:41PM 36.4542 -76.3461 211° Southwest 307 353 26,000  Level Washington Center
04:42PM 36.3786 -76.3994 210° Southwest 307 353 26,000  Level Washington Center
04:43PM 36.3053 -76.4553 212° Southwest 307 353 26,000  Level Washington Center
04:44PM 36.2319 -76.5086 210° Southwest 312 359 26,000 -660 Level Washington Center
04:45PM 36.1542 -76.5644 210° Southwest 318 366 24,800 -1,620 Descending Washington Center
04:46PM 36.0744 -76.6225 210° Southwest 323 372 22,800 -2,040 Descending Washington Center
04:47PM 36.0031 -76.6756 211° Southwest 318 366 20,900 -1,740 Descending Washington Center
04:48PM 35.9294 -76.7283 210° Southwest 313 360 19,400 -1,500 Descending Washington Center
04:49PM 35.8539 -76.7811 210° Southwest 313 360 17,900 2,280 Descending Washington Center
04:50PM 35.7844 -76.8364 213° Southwest 313 360 24,000 -1,500 Climbing Washington Center
04:51PM 35.7131 -76.8839 208° Southwest 313 360 15,000 -5,220 Descending Washington Center
04:52PM 35.6414 -76.9339 210° Southwest 308 354 13,800 -1,320 Descending Washington Center
04:53PM 35.5678 -76.9914 212° Southwest 297 342 12,400 -1,380 Descending Washington Center
04:54PM 35.5006 -77.0386 210° Southwest 292 336 11,100 -720 Descending Washington Center
04:55PM 35.4394 -77.0833 211° Southwest 281 323 11,000 -60 Descending Washington Center
04:56PM 35.3742 -77.1306 211° Southwest 275 316 11,000  Level Washington Center
04:57PM 35.3089 -77.1778 211° Southwest 275 316 11,000  Level Washington Center
04:58PM 35.2394 -77.2247 209° Southwest 275 316 11,000  Level Washington Center
04:59PM 35.1742 -77.2717 210° Southwest 275 316 11,000  Level Washington Center
05:00PM 35.1044 -77.3208 210° Southwest 275 316 11,000  Level Washington Center
05:01PM 35.0328 -77.3703 209° Southwest 275 316 11,000  Level Washington Center
05:02PM 34.9675 -77.4169 210° Southwest 281 323 11,000 -60 Level Washington Center
05:03PM 34.9000 -77.4661 211° Southwest 281 323 10,900 -540 Descending Washington Center
05:04PM 34.8367 -77.5100 210° Southwest 275 316 10,000 -540 Descending Washington Center
05:05PM 34.7711 -77.5567 210° Southwest 270 311 9,900 -1,020 Descending Washington Center
05:06PM 34.7100 -77.5981 209° Southwest 270 311 8,000 -1,740 Descending Washington Center
05:07PM 34.6489 -77.6369 208° Southwest 265 305 6,500 -1,560 Descending Washington Center
05:08PM 34.5753 -77.6706 201° Southwest 265 305 5,000 -1,320 Descending Washington Center
05:09PM 34.5100 -77.7017 201° Southwest 270 311 4,000 -960 Descending Washington Center
05:10PM 34.4447 -77.7378 205° Southwest 264 304 3,100 -900 Descending Washington Center
05:12PM 34.3666 -77.8250 212° Southwest  Level FlightAware Approximate